sensor_id;sensor_type;location;lat;lon;timestamp;pressure;altitude;pressure_sealevel;temperature;humidity
59063;BME280;44851;45.648;9.004;2023-05-12T00:01:19;98593.09;;;13.78;73.65
59063;BME280;44851;45.648;9.004;2023-05-12T00:03:44;98590.03;;;13.66;73.53
59063;BME280;44851;45.648;9.004;2023-05-12T00:06:10;98595.13;;;13.60;73.02
59063;BME280;44851;45.648;9.004;2023-05-12T00:08:35;98589.09;;;13.59;74.53
59063;BME280;44851;45.648;9.004;2023-05-12T00:11:00;98588.94;;;13.44;75.15
59063;BME280;44851;45.648;9.004;2023-05-12T00:13:26;98587.34;;;13.35;74.52
59063;BME280;44851;45.648;9.004;2023-05-12T00:15:53;98590.41;;;13.55;74.82
59063;BME280;44851;45.648;9.004;2023-05-12T00:18:21;98594.47;;;13.58;75.17
59063;BME280;44851;45.648;9.004;2023-05-12T00:20:46;98587.09;;;13.61;75.40
59063;BME280;44851;45.648;9.004;2023-05-12T00:23:12;98591.34;;;13.62;75.07
59063;BME280;44851;45.648;9.004;2023-05-12T00:25:37;98591.72;;;13.51;74.31
59063;BME280;44851;45.648;9.004;2023-05-12T00:28:03;98586.81;;;13.48;74.36
59063;BME280;44851;45.648;9.004;2023-05-12T00:30:28;98588.59;;;13.56;74.48
59063;BME280;44851;45.648;9.004;2023-05-12T00:32:54;98580.75;;;13.47;74.97
59063;BME280;44851;45.648;9.004;2023-05-12T00:35:19;98571.44;;;13.45;74.86
59063;BME280;44851;45.648;9.004;2023-05-12T00:37:44;98571.41;;;13.53;74.93
59063;BME280;44851;45.648;9.004;2023-05-12T00:40:10;98578.13;;;13.47;74.81
59063;BME280;44851;45.648;9.004;2023-05-12T00:42:36;98576.50;;;13.55;74.65
59063;BME280;44851;45.648;9.004;2023-05-12T00:45:02;98580.03;;;13.70;75.03
59063;BME280;44851;45.648;9.004;2023-05-12T00:47:31;98582.63;;;13.78;75.23
59063;BME280;44851;45.648;9.004;2023-05-12T00:49:57;98574.00;;;13.69;75.23
59063;BME280;44851;45.648;9.004;2023-05-12T00:52:23;98579.69;;;13.73;75.13
59063;BME280;44851;45.648;9.004;2023-05-12T00:54:48;98581.16;;;13.76;75.11
59063;BME280;44851;45.648;9.004;2023-05-12T00:57:14;98581.31;;;13.74;74.80
59063;BME280;44851;45.648;9.004;2023-05-12T00:59:39;98578.59;;;13.59;74.88
59063;BME280;44851;45.648;9.004;2023-05-12T01:02:05;98574.31;;;13.66;75.04
59063;BME280;44851;45.648;9.004;2023-05-12T01:04:32;98574.44;;;13.73;74.58
59063;BME280;44851;45.648;9.004;2023-05-12T01:07:24;98573.38;;;13.59;73.27
59063;BME280;44851;45.648;9.004;2023-05-12T01:09:56;98567.78;;;13.62;74.66
59063;BME280;44851;45.648;9.004;2023-05-12T01:12:23;98573.38;;;13.59;74.32
59063;BME280;44851;45.648;9.004;2023-05-12T01:14:51;98563.66;;;13.68;75.34
59063;BME280;44851;45.648;9.004;2023-05-12T01:17:23;98573.50;;;13.66;74.37
59063;BME280;44851;45.648;9.004;2023-05-12T01:19:55;98568.25;;;13.66;75.13
59063;BME280;44851;45.648;9.004;2023-05-12T01:22:21;98564.16;;;13.63;74.60
59063;BME280;44851;45.648;9.004;2023-05-12T01:24:58;98562.91;;;13.59;73.71
59063;BME280;44851;45.648;9.004;2023-05-12T01:27:24;98563.53;;;13.53;74.27
59063;BME280;44851;45.648;9.004;2023-05-12T01:29:51;98570.03;;;13.73;75.16
59063;BME280;44851;45.648;9.004;2023-05-12T01:32:19;98569.22;;;13.73;75.13
59063;BME280;44851;45.648;9.004;2023-05-12T01:34:46;98568.41;;;13.72;74.55
59063;BME280;44851;45.648;9.004;2023-05-12T01:37:11;98562.47;;;13.79;75.27
59063;BME280;44851;45.648;9.004;2023-05-12T01:39:37;98552.00;;;13.79;74.72
59063;BME280;44851;45.648;9.004;2023-05-12T01:42:06;98561.66;;;13.78;74.23
59063;BME280;44851;45.648;9.004;2023-05-12T01:44:31;98559.84;;;13.79;74.03
59063;BME280;44851;45.648;9.004;2023-05-12T01:46:57;98555.53;;;13.55;73.60
59063;BME280;44851;45.648;9.004;2023-05-12T01:49:22;98561.72;;;13.62;74.07
59063;BME280;44851;45.648;9.004;2023-05-12T01:51:48;98559.28;;;13.60;74.11
59063;BME280;44851;45.648;9.004;2023-05-12T01:54:13;98564.38;;;13.54;74.05
59063;BME280;44851;45.648;9.004;2023-05-12T01:56:39;98557.28;;;13.23;73.91
59063;BME280;44851;45.648;9.004;2023-05-12T01:59:05;98563.28;;;13.40;75.18
59063;BME280;44851;45.648;9.004;2023-05-12T02:01:30;98563.41;;;13.46;75.39
59063;BME280;44851;45.648;9.004;2023-05-12T02:03:57;98556.59;;;13.29;73.11
59063;BME280;44851;45.648;9.004;2023-05-12T02:06:23;98557.94;;;13.17;73.59
59063;BME280;44851;45.648;9.004;2023-05-12T02:08:48;98562.31;;;13.33;74.68
59063;BME280;44851;45.648;9.004;2023-05-12T02:11:14;98558.53;;;13.43;74.75
59063;BME280;44851;45.648;9.004;2023-05-12T02:13:40;98560.66;;;13.48;74.95
59063;BME280;44851;45.648;9.004;2023-05-12T02:16:06;98562.09;;;13.42;74.50
59063;BME280;44851;45.648;9.004;2023-05-12T02:18:32;98566.34;;;13.52;74.81
59063;BME280;44851;45.648;9.004;2023-05-12T02:20:57;98567.16;;;13.52;74.56
59063;BME280;44851;45.648;9.004;2023-05-12T02:23:23;98557.97;;;13.56;74.73
59063;BME280;44851;45.648;9.004;2023-05-12T02:25:48;98561.09;;;13.60;74.68
59063;BME280;44851;45.648;9.004;2023-05-12T02:28:14;98559.59;;;13.65;74.80
59063;BME280;44851;45.648;9.004;2023-05-12T02:30:49;98560.09;;;13.61;74.50
59063;BME280;44851;45.648;9.004;2023-05-12T02:33:17;98562.09;;;13.51;75.10
59063;BME280;44851;45.648;9.004;2023-05-12T02:35:43;98558.78;;;13.65;75.50
59063;BME280;44851;45.648;9.004;2023-05-12T02:38:09;98557.97;;;13.64;74.76
59063;BME280;44851;45.648;9.004;2023-05-12T02:40:35;98561.53;;;13.71;75.28
59063;BME280;44851;45.648;9.004;2023-05-12T02:43:00;98559.53;;;13.73;75.56
59063;BME280;44851;45.648;9.004;2023-05-12T02:45:26;98561.03;;;13.68;74.02
59063;BME280;44851;45.648;9.004;2023-05-12T02:47:51;98561.34;;;13.73;75.36
59063;BME280;44851;45.648;9.004;2023-05-12T02:50:17;98564.59;;;13.83;75.46
59063;BME280;44851;45.648;9.004;2023-05-12T02:52:43;98559.69;;;13.80;74.54
59063;BME280;44851;45.648;9.004;2023-05-12T02:55:08;98561.34;;;13.81;74.63
59063;BME280;44851;45.648;9.004;2023-05-12T02:57:34;98563.28;;;13.79;74.57
59063;BME280;44851;45.648;9.004;2023-05-12T03:00:00;98558.41;;;13.76;73.74
59063;BME280;44851;45.648;9.004;2023-05-12T03:02:26;98552.84;;;13.71;73.46
59063;BME280;44851;45.648;9.004;2023-05-12T03:04:51;98562.84;;;13.76;73.90
59063;BME280;44851;45.648;9.004;2023-05-12T03:07:17;98568.25;;;13.66;73.64
59063;BME280;44851;45.648;9.004;2023-05-12T03:09:42;98556.50;;;13.62;73.55
59063;BME280;44851;45.648;9.004;2023-05-12T03:12:08;98555.81;;;13.68;74.33
59063;BME280;44851;45.648;9.004;2023-05-12T03:14:33;98557.44;;;13.69;74.44
59063;BME280;44851;45.648;9.004;2023-05-12T03:16:58;98561.03;;;13.68;74.20
59063;BME280;44851;45.648;9.004;2023-05-12T03:19:24;98554.81;;;13.69;74.21
59063;BME280;44851;45.648;9.004;2023-05-12T03:21:49;98553.16;;;13.76;74.48
59063;BME280;44851;45.648;9.004;2023-05-12T03:24:15;98546.00;;;13.62;74.03
59063;BME280;44851;45.648;9.004;2023-05-12T03:26:40;98550.44;;;13.61;73.98
59063;BME280;44851;45.648;9.004;2023-05-12T03:29:06;98544.72;;;13.58;74.04
59063;BME280;44851;45.648;9.004;2023-05-12T03:31:32;98547.63;;;13.63;74.16
59063;BME280;44851;45.648;9.004;2023-05-12T03:33:57;98550.94;;;13.65;74.34
59063;BME280;44851;45.648;9.004;2023-05-12T03:36:23;98546.66;;;13.64;74.27
59063;BME280;44851;45.648;9.004;2023-05-12T03:38:48;98544.69;;;13.66;74.10
59063;BME280;44851;45.648;9.004;2023-05-12T03:41:13;98552.06;;;13.62;73.85
59063;BME280;44851;45.648;9.004;2023-05-12T03:43:40;98551.13;;;13.55;73.77
59063;BME280;44851;45.648;9.004;2023-05-12T03:46:06;98545.53;;;13.58;73.96
59063;BME280;44851;45.648;9.004;2023-05-12T03:48:31;98542.31;;;13.48;73.75
59063;BME280;44851;45.648;9.004;2023-05-12T03:50:57;98552.25;;;13.53;74.59
59063;BME280;44851;45.648;9.004;2023-05-12T03:53:22;98549.31;;;13.47;73.83
59063;BME280;44851;45.648;9.004;2023-05-12T03:55:47;98543.13;;;13.48;74.47
59063;BME280;44851;45.648;9.004;2023-05-12T03:58:13;98545.25;;;13.45;74.44
59063;BME280;44851;45.648;9.004;2023-05-12T04:00:38;98541.63;;;13.54;74.61
59063;BME280;44851;45.648;9.004;2023-05-12T04:03:03;98544.38;;;13.61;74.64
59063;BME280;44851;45.648;9.004;2023-05-12T04:05:29;98546.69;;;13.56;74.67
59063;BME280;44851;45.648;9.004;2023-05-12T04:07:54;98546.69;;;13.56;74.24
59063;BME280;44851;45.648;9.004;2023-05-12T04:10:19;98545.22;;;13.53;75.08
59063;BME280;44851;45.648;9.004;2023-05-12T04:12:45;98557.50;;;13.53;75.37
59063;BME280;44851;45.648;9.004;2023-05-12T04:15:10;98547.69;;;13.46;74.68
59063;BME280;44851;45.648;9.004;2023-05-12T04:17:38;98551.63;;;13.51;75.13
59063;BME280;44851;45.648;9.004;2023-05-12T04:20:04;98554.56;;;13.47;75.57
59063;BME280;44851;45.648;9.004;2023-05-12T04:22:29;98549.69;;;13.44;74.92
59063;BME280;44851;45.648;9.004;2023-05-12T04:24:55;98552.63;;;13.50;74.87
59063;BME280;44851;45.648;9.004;2023-05-12T04:27:21;98553.56;;;13.57;75.32
59063;BME280;44851;45.648;9.004;2023-05-12T04:29:46;98551.00;;;13.48;75.17
59063;BME280;44851;45.648;9.004;2023-05-12T04:32:11;98545.75;;;13.48;75.18
59063;BME280;44851;45.648;9.004;2023-05-12T04:34:37;98551.63;;;13.51;75.65
59063;BME280;44851;45.648;9.004;2023-05-12T04:37:02;98555.25;;;13.41;74.54
59063;BME280;44851;45.648;9.004;2023-05-12T04:39:27;98557.84;;;13.50;75.50
59063;BME280;44851;45.648;9.004;2023-05-12T04:41:53;98555.22;;;13.50;75.18
59063;BME280;44851;45.648;9.004;2023-05-12T04:44:18;98557.50;;;13.53;75.61
59063;BME280;44851;45.648;9.004;2023-05-12T04:46:44;98561.47;;;13.48;75.41
59063;BME280;44851;45.648;9.004;2023-05-12T04:49:09;98567.19;;;13.44;75.03
59063;BME280;44851;45.648;9.004;2023-05-12T04:51:35;98564.56;;;13.44;75.41
59063;BME280;44851;45.648;9.004;2023-05-12T04:54:09;98559.22;;;13.37;75.51
59063;BME280;44851;45.648;9.004;2023-05-12T04:56:34;98569.97;;;13.42;75.70
59063;BME280;44851;45.648;9.004;2023-05-12T04:59:00;98571.97;;;13.32;75.40
59063;BME280;44851;45.648;9.004;2023-05-12T05:01:25;98575.50;;;13.47;75.68
59063;BME280;44851;45.648;9.004;2023-05-12T05:03:51;98574.56;;;13.48;75.65
59063;BME280;44851;45.648;9.004;2023-05-12T05:06:16;98581.38;;;13.58;75.89
59063;BME280;44851;45.648;9.004;2023-05-12T05:08:41;98576.13;;;13.58;75.60
59063;BME280;44851;45.648;9.004;2023-05-12T05:11:07;98576.19;;;13.50;75.12
59063;BME280;44851;45.648;9.004;2023-05-12T05:13:32;98577.31;;;13.55;75.49
59063;BME280;44851;45.648;9.004;2023-05-12T05:15:58;98582.41;;;13.48;75.57
59063;BME280;44851;45.648;9.004;2023-05-12T05:18:23;98579.44;;;13.52;75.88
59063;BME280;44851;45.648;9.004;2023-05-12T05:20:48;98586.97;;;13.55;75.75
59063;BME280;44851;45.648;9.004;2023-05-12T05:23:14;98580.41;;;13.59;75.98
59063;BME280;44851;45.648;9.004;2023-05-12T05:25:40;98584.78;;;13.66;75.94
59063;BME280;44851;45.648;9.004;2023-05-12T05:28:06;98583.78;;;13.76;75.60
59063;BME280;44851;45.648;9.004;2023-05-12T05:30:31;98579.69;;;13.73;74.90
59063;BME280;44851;45.648;9.004;2023-05-12T05:32:57;98583.72;;;13.84;76.25
59063;BME280;44851;45.648;9.004;2023-05-12T05:35:22;98583.44;;;13.79;74.85
59063;BME280;44851;45.648;9.004;2023-05-12T05:37:47;98584.78;;;13.74;74.41
59063;BME280;44851;45.648;9.004;2023-05-12T05:40:14;98584.94;;;13.73;74.47
59063;BME280;44851;45.648;9.004;2023-05-12T05:42:40;98586.91;;;13.71;74.57
59063;BME280;44851;45.648;9.004;2023-05-12T05:45:06;98591.47;;;13.69;74.44
59063;BME280;44851;45.648;9.004;2023-05-12T05:47:31;98593.56;;;13.82;75.27
59063;BME280;44851;45.648;9.004;2023-05-12T05:49:58;98603.25;;;13.81;75.06
59063;BME280;44851;45.648;9.004;2023-05-12T05:52:23;98593.94;;;13.70;74.37
59063;BME280;44851;45.648;9.004;2023-05-12T05:54:49;98593.78;;;13.64;74.10
59063;BME280;44851;45.648;9.004;2023-05-12T05:57:14;98597.72;;;13.68;73.77
59063;BME280;44851;45.648;9.004;2023-05-12T05:59:40;98598.84;;;13.73;74.07
59063;BME280;44851;45.648;9.004;2023-05-12T06:02:05;98603.63;;;13.62;73.17
59063;BME280;44851;45.648;9.004;2023-05-12T06:04:31;98599.88;;;13.64;74.26
59063;BME280;44851;45.648;9.004;2023-05-12T06:06:56;98606.91;;;13.56;74.59
59063;BME280;44851;45.648;9.004;2023-05-12T06:09:22;98603.63;;;13.62;74.11
59063;BME280;44851;45.648;9.004;2023-05-12T06:11:47;98607.03;;;13.70;74.82
59063;BME280;44851;45.648;9.004;2023-05-12T06:14:12;98606.25;;;13.62;74.17
59063;BME280;44851;45.648;9.004;2023-05-12T06:16:38;98613.16;;;13.55;73.57
59063;BME280;44851;45.648;9.004;2023-05-12T06:19:03;98610.16;;;13.66;74.48
59063;BME280;44851;45.648;9.004;2023-05-12T06:21:29;98610.13;;;13.74;74.39
59063;BME280;44851;45.648;9.004;2023-05-12T06:23:54;98608.81;;;13.78;73.98
59063;BME280;44851;45.648;9.004;2023-05-12T06:26:20;98616.50;;;13.80;74.24
59063;BME280;44851;45.648;9.004;2023-05-12T06:28:46;98617.63;;;13.85;74.44
59063;BME280;44851;45.648;9.004;2023-05-12T06:31:11;98620.59;;;13.82;73.15
59063;BME280;44851;45.648;9.004;2023-05-12T06:33:37;98620.59;;;13.82;74.92
59063;BME280;44851;45.648;9.004;2023-05-12T06:36:02;98621.00;;;14.02;75.51
59063;BME280;44851;45.648;9.004;2023-05-12T06:38:27;98632.19;;;13.96;74.78
59063;BME280;44851;45.648;9.004;2023-05-12T06:40:53;98628.69;;;14.04;74.57
59063;BME280;44851;45.648;9.004;2023-05-12T06:43:18;98636.16;;;14.15;74.24
59063;BME280;44851;45.648;9.004;2023-05-12T06:45:44;98630.53;;;14.34;74.61
59063;BME280;44851;45.648;9.004;2023-05-12T06:48:09;98630.31;;;14.44;72.62
59063;BME280;44851;45.648;9.004;2023-05-12T06:50:34;98632.16;;;14.35;72.75
59063;BME280;44851;45.648;9.004;2023-05-12T06:53:00;98629.44;;;14.51;72.40
59063;BME280;44851;45.648;9.004;2023-05-12T06:55:25;98624.91;;;14.45;72.35
59063;BME280;44851;45.648;9.004;2023-05-12T06:57:51;98627.53;;;14.68;71.65
59063;BME280;44851;45.648;9.004;2023-05-12T07:00:21;98622.16;;;14.85;71.30
59063;BME280;44851;45.648;9.004;2023-05-12T07:02:46;98625.75;;;15.07;71.61
59063;BME280;44851;45.648;9.004;2023-05-12T07:05:12;98617.44;;;15.41;72.41
59063;BME280;44851;45.648;9.004;2023-05-12T07:07:37;98631.22;;;15.20;70.40
59063;BME280;44851;45.648;9.004;2023-05-12T07:10:03;98626.59;;;15.22;71.92
59063;BME280;44851;45.648;9.004;2023-05-12T07:12:28;98626.78;;;15.20;71.49
59063;BME280;44851;45.648;9.004;2023-05-12T07:14:53;98631.00;;;15.07;70.09
59063;BME280;44851;45.648;9.004;2023-05-12T07:17:19;98626.75;;;15.05;70.85
59063;BME280;44851;45.648;9.004;2023-05-12T07:19:45;98631.44;;;14.95;71.55
59063;BME280;44851;45.648;9.004;2023-05-12T07:22:11;98623.41;;;15.12;71.28
59063;BME280;44851;45.648;9.004;2023-05-12T07:24:36;98626.13;;;15.03;70.38
59063;BME280;44851;45.648;9.004;2023-05-12T07:27:03;98618.53;;;15.09;70.32
59063;BME280;44851;45.648;9.004;2023-05-12T07:29:28;98617.44;;;15.18;70.38
59063;BME280;44851;45.648;9.004;2023-05-12T07:31:54;98623.66;;;15.25;70.77
59063;BME280;44851;45.648;9.004;2023-05-12T07:34:19;98618.09;;;15.20;70.37
59063;BME280;44851;45.648;9.004;2023-05-12T07:36:45;98624.13;;;15.43;72.23
59063;BME280;44851;45.648;9.004;2023-05-12T07:39:11;98618.09;;;15.58;69.54
59063;BME280;44851;45.648;9.004;2023-05-12T07:41:39;98623.94;;;15.45;68.33
59063;BME280;44851;45.648;9.004;2023-05-12T07:44:05;98629.91;;;15.39;69.40
59063;BME280;44851;45.648;9.004;2023-05-12T07:46:30;98628.38;;;15.44;70.13
59063;BME280;44851;45.648;9.004;2023-05-12T07:48:56;98629.47;;;15.35;70.16
59063;BME280;44851;45.648;9.004;2023-05-12T07:51:21;98632.16;;;15.27;69.58
59063;BME280;44851;45.648;9.004;2023-05-12T07:53:47;98625.25;;;14.88;67.54
59063;BME280;44851;45.648;9.004;2023-05-12T07:56:12;98634.28;;;15.09;70.15
59063;BME280;44851;45.648;9.004;2023-05-12T07:58:37;98631.22;;;15.20;70.24
59063;BME280;44851;45.648;9.004;2023-05-12T08:01:03;98631.47;;;15.10;70.63
59063;BME280;44851;45.648;9.004;2023-05-12T08:03:31;98631.34;;;15.26;71.16
59063;BME280;44851;45.648;9.004;2023-05-12T08:05:57;98628.75;;;15.18;66.65
59063;BME280;44851;45.648;9.004;2023-05-12T08:08:22;98629.91;;;15.24;68.65
59063;BME280;44851;45.648;9.004;2023-05-12T08:10:48;98633.56;;;15.15;67.23
59063;BME280;44851;45.648;9.004;2023-05-12T08:13:13;98631.94;;;15.14;68.77
59063;BME280;44851;45.648;9.004;2023-05-12T08:15:38;98635.97;;;15.24;70.27
59063;BME280;44851;45.648;9.004;2023-05-12T08:18:04;98642.06;;;15.17;69.47
59063;BME280;44851;45.648;9.004;2023-05-12T08:20:29;98633.19;;;15.18;68.87
59063;BME280;44851;45.648;9.004;2023-05-12T08:22:55;98630.19;;;15.06;68.20
59063;BME280;44851;45.648;9.004;2023-05-12T08:25:20;98630.44;;;14.96;67.39
59063;BME280;44851;45.648;9.004;2023-05-12T08:27:46;98638.00;;;14.91;68.21
59063;BME280;44851;45.648;9.004;2023-05-12T08:30:12;98639.41;;;15.02;68.62
59063;BME280;44851;45.648;9.004;2023-05-12T08:32:37;98647.75;;;15.05;68.56
59063;BME280;44851;45.648;9.004;2023-05-12T08:35:03;98646.41;;;15.10;67.49
59063;BME280;44851;45.648;9.004;2023-05-12T08:37:29;98651.84;;;15.08;68.49
59063;BME280;44851;45.648;9.004;2023-05-12T08:39:55;98652.13;;;15.13;68.87
59063;BME280;44851;45.648;9.004;2023-05-12T08:44:47;98656.63;;;15.04;67.22
59063;BME280;44851;45.648;9.004;2023-05-12T08:47:13;98652.84;;;15.22;68.81
59063;BME280;44851;45.648;9.004;2023-05-12T08:49:41;98655.00;;;15.18;66.84
59063;BME280;44851;45.648;9.004;2023-05-12T08:52:08;98659.44;;;15.18;66.43
59063;BME280;44851;45.648;9.004;2023-05-12T08:54:34;98654.66;;;15.29;66.14
59063;BME280;44851;45.648;9.004;2023-05-12T08:57:00;98662.53;;;15.29;67.72
59063;BME280;44851;45.648;9.004;2023-05-12T08:59:26;98652.56;;;15.54;68.18
59063;BME280;44851;45.648;9.004;2023-05-12T09:01:53;98652.50;;;15.63;68.05
59063;BME280;44851;45.648;9.004;2023-05-12T09:04:19;98655.94;;;15.63;65.70
59063;BME280;44851;45.648;9.004;2023-05-12T09:06:45;98658.66;;;15.40;65.63
59063;BME280;44851;45.648;9.004;2023-05-12T09:09:11;98659.56;;;15.47;65.35
59063;BME280;44851;45.648;9.004;2023-05-12T09:11:39;98666.25;;;15.35;63.75
59063;BME280;44851;45.648;9.004;2023-05-12T09:14:21;98665.44;;;15.35;64.11
59063;BME280;44851;45.648;9.004;2023-05-12T09:16:54;98666.25;;;15.35;63.10
59063;BME280;44851;45.648;9.004;2023-05-12T09:19:22;98665.78;;;15.32;63.30
59063;BME280;44851;45.648;9.004;2023-05-12T09:21:48;98659.81;;;15.38;64.47
59063;BME280;44851;45.648;9.004;2023-05-12T09:24:13;98666.00;;;15.22;62.62
59063;BME280;44851;45.648;9.004;2023-05-12T09:26:53;98663.88;;;15.17;62.99
59063;BME280;44851;45.648;9.004;2023-05-12T09:29:19;98665.16;;;15.21;65.55
59063;BME280;44851;45.648;9.004;2023-05-12T09:32:03;98665.19;;;14.98;63.98
59063;BME280;44851;45.648;9.004;2023-05-12T09:34:33;98672.66;;;15.10;65.97
59063;BME280;44851;45.648;9.004;2023-05-12T09:37:04;98679.63;;;15.02;65.82
59063;BME280;44851;45.648;9.004;2023-05-12T09:39:30;98672.41;;;14.96;65.48
59063;BME280;44851;45.648;9.004;2023-05-12T09:41:56;98673.91;;;14.76;66.46
59063;BME280;44851;45.648;9.004;2023-05-12T09:44:22;98677.38;;;14.68;67.95
59063;BME280;44851;45.648;9.004;2023-05-12T09:46:48;98674.81;;;14.60;69.17
59063;BME280;44851;45.648;9.004;2023-05-12T09:49:20;98678.25;;;14.61;70.13
59063;BME280;44851;45.648;9.004;2023-05-12T09:51:45;98668.38;;;14.63;71.52
59063;BME280;44851;45.648;9.004;2023-05-12T09:54:11;98667.41;;;14.64;70.19
59063;BME280;44851;45.648;9.004;2023-05-12T09:56:38;98664.13;;;14.85;70.02
59063;BME280;44851;45.648;9.004;2023-05-12T09:59:05;98666.88;;;15.14;70.32
59063;BME280;44851;45.648;9.004;2023-05-12T10:01:30;98665.63;;;15.48;70.57
59063;BME280;44851;45.648;9.004;2023-05-12T10:03:57;98665.91;;;15.53;68.34
59063;BME280;44851;45.648;9.004;2023-05-12T10:06:26;98658.66;;;15.70;69.20
59063;BME280;44851;45.648;9.004;2023-05-12T10:09:03;98671.63;;;15.86;69.94
59063;BME280;44851;45.648;9.004;2023-05-12T10:11:30;98663.03;;;15.63;67.27
59063;BME280;44851;45.648;9.004;2023-05-12T10:13:56;98661.13;;;15.56;67.40
59063;BME280;44851;45.648;9.004;2023-05-12T10:16:23;98662.25;;;15.39;67.06
59063;BME280;44851;45.648;9.004;2023-05-12T10:18:49;98658.75;;;15.47;68.21
59063;BME280;44851;45.648;9.004;2023-05-12T10:21:15;98652.25;;;15.72;68.45
59063;BME280;44851;45.648;9.004;2023-05-12T10:23:40;98654.78;;;15.80;70.15
59063;BME280;44851;45.648;9.004;2023-05-12T10:26:09;98655.84;;;15.42;65.54
59063;BME280;44851;45.648;9.004;2023-05-12T10:28:35;98652.31;;;15.64;67.25
59063;BME280;44851;45.648;9.004;2023-05-12T10:31:01;98652.34;;;15.79;67.23
59063;BME280;44851;45.648;9.004;2023-05-12T10:33:29;98656.75;;;16.08;66.41
59063;BME280;44851;45.648;9.004;2023-05-12T10:35:54;98659.44;;;16.44;69.26
59063;BME280;44851;45.648;9.004;2023-05-12T10:38:20;98655.72;;;16.53;65.94
59063;BME280;44851;45.648;9.004;2023-05-12T10:40:58;98648.63;;;16.75;66.40
59063;BME280;44851;45.648;9.004;2023-05-12T10:43:28;98654.31;;;16.36;63.71
59063;BME280;44851;45.648;9.004;2023-05-12T10:51:18;98635.44;;;17.11;63.03
59063;BME280;44851;45.648;9.004;2023-05-12T10:53:43;98637.91;;;17.20;66.98
59063;BME280;44851;45.648;9.004;2023-05-12T10:56:09;98641.59;;;17.04;66.82
59063;BME280;44851;45.648;9.004;2023-05-12T10:58:34;98635.03;;;16.93;64.00
59063;BME280;44851;45.648;9.004;2023-05-12T11:01:05;98636.44;;;16.68;59.93
59063;BME280;44851;45.648;9.004;2023-05-12T11:03:31;98629.16;;;16.70;61.11
59063;BME280;44851;45.648;9.004;2023-05-12T11:06:03;98633.03;;;16.95;61.30
59063;BME280;44851;45.648;9.004;2023-05-12T11:08:29;98631.28;;;17.02;60.99
59063;BME280;44851;45.648;9.004;2023-05-12T11:10:56;98633.41;;;17.13;61.60
59063;BME280;44851;45.648;9.004;2023-05-12T11:13:21;98635.88;;;17.43;60.88
59063;BME280;44851;45.648;9.004;2023-05-12T11:15:46;98626.47;;;17.34;58.54
59063;BME280;44851;45.648;9.004;2023-05-12T11:18:12;98633.66;;;16.97;62.78
59063;BME280;44851;45.648;9.004;2023-05-12T11:20:37;98640.53;;;16.77;62.14
59063;BME280;44851;45.648;9.004;2023-05-12T11:23:03;98643.03;;;16.42;62.68
59063;BME280;44851;45.648;9.004;2023-05-12T11:25:29;98639.97;;;16.24;64.03
59063;BME280;44851;45.648;9.004;2023-05-12T11:27:54;98640.06;;;16.16;64.04
59063;BME280;44851;45.648;9.004;2023-05-12T11:30:20;98638.19;;;16.09;64.69
59063;BME280;44851;45.648;9.004;2023-05-12T11:32:46;98639.41;;;16.14;65.01
59063;BME280;44851;45.648;9.004;2023-05-12T11:35:16;98638.19;;;16.09;64.65
59063;BME280;44851;45.648;9.004;2023-05-12T11:37:43;98638.25;;;16.16;65.40
59063;BME280;44851;45.648;9.004;2023-05-12T11:40:17;98636.94;;;16.20;65.39
59063;BME280;44851;45.648;9.004;2023-05-12T11:42:43;98640.72;;;16.18;65.36
59063;BME280;44851;45.648;9.004;2023-05-12T11:47:48;98641.03;;;16.44;65.41
59063;BME280;44851;45.648;9.004;2023-05-12T11:50:19;98631.28;;;16.59;64.06
59063;BME280;44851;45.648;9.004;2023-05-12T11:52:46;98634.91;;;16.80;63.51
59063;BME280;44851;45.648;9.004;2023-05-12T11:55:11;98628.78;;;16.94;63.53
59063;BME280;44851;45.648;9.004;2023-05-12T11:57:36;98627.00;;;17.01;65.87
59063;BME280;44851;45.648;9.004;2023-05-12T12:02:29;98619.13;;;17.01;66.64
59063;BME280;44851;45.648;9.004;2023-05-12T12:04:54;98624.50;;;16.93;67.28
59063;BME280;44851;45.648;9.004;2023-05-12T12:07:34;98620.13;;;16.79;63.71
59063;BME280;44851;45.648;9.004;2023-05-12T12:10:18;98622.19;;;16.62;63.55
59063;BME280;44851;45.648;9.004;2023-05-12T12:12:44;98619.50;;;16.55;64.79
59063;BME280;44851;45.648;9.004;2023-05-12T12:15:10;98626.75;;;16.32;66.00
59063;BME280;44851;45.648;9.004;2023-05-12T12:17:36;98633.47;;;16.20;65.58
59063;BME280;44851;45.648;9.004;2023-05-12T12:20:02;98631.66;;;15.76;66.19
59063;BME280;44851;45.648;9.004;2023-05-12T12:22:28;98643.44;;;15.65;66.61
59063;BME280;44851;45.648;9.004;2023-05-12T12:24:58;98647.81;;;15.73;68.73
59063;BME280;44851;45.648;9.004;2023-05-12T12:27:23;98649.59;;;15.58;68.65
59063;BME280;44851;45.648;9.004;2023-05-12T12:29:49;98662.19;;;15.47;69.51
59063;BME280;44851;45.648;9.004;2023-05-12T12:32:14;98667.97;;;15.43;69.94
59063;BME280;44851;45.648;9.004;2023-05-12T12:34:40;98663.81;;;15.48;70.11
59063;BME280;44851;45.648;9.004;2023-05-12T12:37:06;98660.53;;;15.32;70.67
59063;BME280;44851;45.648;9.004;2023-05-12T12:39:31;98662.16;;;15.33;70.05
59063;BME280;44851;45.648;9.004;2023-05-12T12:41:57;98652.56;;;15.54;71.85
59063;BME280;44851;45.648;9.004;2023-05-12T12:44:23;98655.47;;;15.60;71.57
59063;BME280;44851;45.648;9.004;2023-05-12T12:46:48;98660.38;;;15.63;71.26
59063;BME280;44851;45.648;9.004;2023-05-12T12:49:13;98658.31;;;15.73;71.42
59063;BME280;44851;45.648;9.004;2023-05-12T12:51:39;98656.69;;;15.72;70.52
59063;BME280;44851;45.648;9.004;2023-05-12T12:54:04;98654.16;;;15.78;72.04
59063;BME280;44851;45.648;9.004;2023-05-12T12:56:29;98653.06;;;15.73;68.51
59063;BME280;44851;45.648;9.004;2023-05-12T12:58:55;98658.94;;;15.75;69.31
59063;BME280;44851;45.648;9.004;2023-05-12T13:01:21;98656.84;;;15.85;70.77
59063;BME280;44851;45.648;9.004;2023-05-12T13:03:46;98665.28;;;15.80;69.97
59063;BME280;44851;45.648;9.004;2023-05-12T13:06:12;98670.53;;;15.80;70.75
59063;BME280;44851;45.648;9.004;2023-05-12T13:08:37;98670.91;;;15.77;71.79